Weather reports worldwide

Advertisment
Wasserkuppe, Germany (10544): temperature & dewpoint: 20.03.2019 08:00:00 - 26.03.2019 08:00:00 (CET)Wasserkuppe, Germany (10544): temperature 5cm & temperature -5cm: 20.03.2019 08:00:00 - 26.03.2019 08:00:00 (CET)Wasserkuppe, Germany (10544): temperature -20cm & temperature -100cm: 20.03.2019 08:00:00 - 26.03.2019 08:00:00 (CET)Wasserkuppe, Germany (10544): wind speed & gusts: 20.03.2019 08:00:00 - 26.03.2019 08:00:00 (CET)Wasserkuppe, Germany (10544): wind direction: 20.03.2019 08:00:00 - 26.03.2019 08:00:00 (CET)Wasserkuppe, Germany (10544): visibility: 20.03.2019 08:00:00 - 26.03.2019 08:00:00 (CET)Wasserkuppe, Germany (10544): sunshine duration: 20.03.2019 08:00:00 - 26.03.2019 08:00:00 (CET)Wasserkuppe, Germany (10544): precipitation: 20.03.2019 08:00:00 - 26.03.2019 08:00:00 (CET)
Date & Time tt [°C] td [°C] tt 5cm [°C] tt -5cm [°C] tt -20cm [°C] tt -100cm [°C] ff [km/h] ff [kn] fx [km/h] fx [kn] dd vv [km] sd [min] rr [mm]
26.03.2019 08:00:00 -1,3 -1,8 -1,2 0,9 2,4 1,9 20 11 36 19 NNW 8 0 0,0
26.03.2019 07:00:00 -1,6 -1,8 -1,6 0,9 2,4 1,9 26 14 36 19 NNW 0,6 0 0,0
26.03.2019 06:00:00 -1,4 -1,5 -1,5 0,9 2,5 1,9 27 14 37 20 NNW 0,6 0 0,0
26.03.2019 05:00:00 -1,3 -1,4 -1,3 0,9 2,5 1,9 22 12 35 19 NNW 0,3 0 0,0
26.03.2019 04:00:00 -1,0 -1,0 -1,0 1,0 2,5 1,9 26 14 46 25 NNW 0,1 0 0,0
26.03.2019 03:00:00 -0,7 -0,7 -0,8 1,0 2,6 1,9 33 18 47 26 N 0,1 0 0,0
26.03.2019 02:00:00 -0,8 -0,8 -0,8 1,0 2,6 1,9 35 19 48 26 N 0,1 0 0,1
26.03.2019 01:00:00 -0,7 -0,7 -0,7 1,0 2,6 1,9 29 15 40 21 N 0,1 0 0,0
26.03.2019 00:00:00 -0,9 -0,9 -0,9 1,0 2,7 1,9 29 16 42 23 N 0,1 0 0,1
25.03.2019 23:00:00 -1,0 -1,0 -1,0 1,0 2,7 1,9 35 19 45 24 N 0,1 0 0,0
25.03.2019 22:00:00 -1,2 -1,3 -1,2 1,0 2,8 1,9 30 16 46 25 N 0,2 0 0,1
25.03.2019 21:00:00 -1,2 -1,2 -1,2 1,1 2,8 1,9 32 18 43 23 NNW 0,2 0 0,3
25.03.2019 20:00:00 -1,3 -1,4 -1,3 1,1 2,9 1,9 31 17 45 25 NNW 0,3 0 0,0
25.03.2019 19:00:00 -1,0 -1,2 -1,1 1,1 2,9 1,9 27 15 44 24 NW 10 0 0,0
25.03.2019 18:00:00 -1,2 -1,7 -2,2 1,1 3,0 1,9 35 19 53 29 NNW 15 0 0,3
25.03.2019 17:00:00 -0,9 -1,2 -0,9 1,1 3,1 1,8 31 17 51 28 NW 0,3 5 1,7
25.03.2019 16:00:00 -0,6 -1,0 -0,4 1,2 3,1 1,8 35 19 53 29 NW 0,4 0 1,2
25.03.2019 15:00:00 -0,6 -1,3 0,0 1,2 3,2 1,8 29 16 58 31 NW 0,4 0 1,1
25.03.2019 14:00:00 -0,7 -1,3 -0,3 1,2 3,3 1,8 30 16 53 29 NW 0,5 1 0,6
25.03.2019 13:00:00 -1,8 -2,3 -1,8 1,3 3,3 1,8 36 20 68 37 NNW 0,2 0 0,5
25.03.2019 12:00:00 -0,8 -1,4 -0,2 1,3 3,4 1,8 23 12 41 22 WNW 18 0 0,7
25.03.2019 11:00:00 -1,1 -1,8 -1,0 1,4 3,5 1,8 20 11 39 21 WNW 0,6 0 0,0
25.03.2019 10:00:00 -1,3 -1,9 -0,9 1,5 3,6 1,8 19 11 44 24 WNW 12 4 0,0
25.03.2019 09:00:00 -1,5 -1,7 -1,2 1,5 3,7 1,8 31 17 49 27 NW 0,2 0 0,4
25.03.2019 08:00:00 -1,9 -2,0 -1,7 1,6 3,8 1,8 25 13 41 22 W 0,2 0 0,0
25.03.2019 07:00:00 -2,2 -2,5 -2,1 1,7 3,9 1,8 22 12 - - W 0,6 0 0,1
25.03.2019 06:00:00 -2,4 -3,2 -2,6 1,9 4,0 1,8 22 12 35 19 W 16 0 0,0
25.03.2019 05:00:00 -2,0 -3,6 -2,0 2,1 4,0 1,8 21 11 33 18 WNW 25 0 0,0
25.03.2019 04:00:00 -2,0 -3,4 -2,8 2,3 4,1 1,8 21 12 33 18 WNW 30 0 0,0
25.03.2019 03:00:00 -1,2 -3,4 -1,9 2,5 4,2 1,8 18 10 30 16 WNW 35 0 0,0
25.03.2019 02:00:00 -0,7 -3,7 -1,5 2,8 4,3 1,8 17 9 35 19 NW 35 0 0,0
25.03.2019 01:00:00 -0,3 -4,2 -1,1 3,1 4,4 1,8 23 13 31 17 NNW 35 0 0,0
25.03.2019 00:00:00 0,2 -4,3 -1,1 3,5 4,4 1,8 22 12 32 17 NW 30 0 0,0
24.03.2019 23:00:00 1,5 -2,6 1,2 4,0 4,4 1,7 21 12 29 16 NNW 20 0 0,0
24.03.2019 22:00:00 2,3 -0,8 1,9 4,3 4,5 1,7 20 11 29 16 NNW 15 0 0,0
24.03.2019 21:00:00 2,8 0,9 1,7 4,7 4,5 1,7 21 11 28 15 NNW 12 0 0,0
24.03.2019 20:00:00 3,0 1,5 2,4 5,2 4,4 1,7 12 7 18 10 NW 15 0 0,0
24.03.2019 19:00:00 3,0 0,8 2,0 5,9 4,4 1,7 11 6 24 13 WNW 22 0 0,0
24.03.2019 18:00:00 4,4 0,6 3,5 6,5 4,3 1,7 18 10 28 15 NNW 18 25 0,0
24.03.2019 17:00:00 4,5 2,2 4,9 6,7 4,2 1,7 15 8 26 14 NNW 15 0 0,0
24.03.2019 16:00:00 4,8 1,9 5,4 6,9 4,2 1,7 18 10 26 14 N 15 0 0,0
24.03.2019 15:00:00 4,9 2,9 5,2 7,1 4,1 1,7 20 11 26 14 NNW 12 0 0,0
24.03.2019 14:00:00 5,6 2,6 6,1 7,2 4,0 1,7 18 10 24 13 N 12 1 0,0
24.03.2019 13:00:00 6,0 3,3 7,2 6,7 4,0 1,7 9 5 13 7 NW 12 1 0,0
24.03.2019 12:00:00 5,2 4,1 6,6 5,8 4,1 1,7 6 4 13 7 N 2,5 0 0,0
24.03.2019 11:00:00 4,7 4,3 5,9 4,9 4,1 1,7 8 4 15 8 NE 0,1 0 0,0
24.03.2019 10:00:00 4,8 4,4 5,2 3,9 4,2 1,7 11 6 18 10 SE 0,6 0 0,0
24.03.2019 09:00:00 3,5 3,5 4,2 3,3 4,3 1,7 12 6 19 10 E 0,2 0 0,0
24.03.2019 08:00:00 3,1 3,1 3,3 3,0 4,4 1,7 14 7 23 12 ENE 0,1 0 0,0
24.03.2019 07:00:00 2,8 2,8 2,7 2,8 4,5 1,7 14 8 22 12 ENE 0,2 0 0,0
24.03.2019 06:00:00 2,8 2,7 2,2 2,7 4,7 1,7 16 9 22 12 E 4,0 0 0,0
24.03.2019 05:00:00 2,3 2,2 1,0 3,0 4,8 1,7 15 8 22 12 E 0,6 0 0,0
24.03.2019 04:00:00 2,5 2,2 1,0 3,4 4,9 1,7 13 7 19 11 E 12 0 0,0
24.03.2019 03:00:00 3,8 1,9 1,6 3,8 5,0 1,7 16 9 22 12 E 15 0 0,0
24.03.2019 02:00:00 2,8 2,4 1,5 4,2 5,1 1,7 16 9 27 15 E 12 0 0,0
24.03.2019 01:00:00 3,1 2,4 1,7 4,6 5,2 1,7 18 10 27 15 ENE 15 0 0,0
24.03.2019 00:00:00 2,9 2,4 1,7 5,2 5,2 1,7 19 11 27 15 NE 10 0 0,0
23.03.2019 23:00:00 3,4 2,6 2,0 5,8 5,2 1,7 20 11 31 17 NE 12 0 0,0
23.03.2019 22:00:00 3,2 2,6 2,3 6,5 5,2 1,7 24 13 31 17 NNE 15 0 0,0
23.03.2019 21:00:00 3,5 2,3 2,4 7,5 5,1 1,6 26 14 35 19 NNE 9 0 0,0
23.03.2019 20:00:00 4,1 2,1 3,0 8,7 5,0 1,6 28 15 34 18 NNE 8 0 0,0
23.03.2019 19:00:00 6,4 2,5 5,0 10,0 4,7 1,6 22 12 28 15 N 8 4 0,0
23.03.2019 18:00:00 8,2 4,2 7,5 11,3 4,5 1,6 22 12 32 17 N 8 60 0,0
23.03.2019 17:00:00 11,5 3,6 11,6 12,1 4,2 1,6 22 12 33 18 N 15 58 0,0
23.03.2019 16:00:00 12,6 2,5 13,5 12,6 4,0 1,6 20 11 26 14 N 20 60 0,0
23.03.2019 15:00:00 13,2 1,0 16,0 12,2 3,8 1,6 13 7 23 12 NNW 20 59 0,0
23.03.2019 14:00:00 12,9 1,1 15,9 11,5 3,6 1,6 11 6 23 13 WNW 22 60 0,0
23.03.2019 13:00:00 13,2 1,3 16,0 10,0 3,5 1,6 11 6 19 10 NW 30 60 0,0
23.03.2019 12:00:00 12,1 2,7 14,3 8,0 3,5 1,6 9 5 16 9 NW 30 60 0,0
23.03.2019 11:00:00 11,6 3,2 14,3 5,7 3,6 1,6 10 5 18 10 NW 35 60 0,0
23.03.2019 10:00:00 12,2 1,9 14,1 3,3 3,7 1,6 6 3 10 6 N 35 60 0,0
23.03.2019 09:00:00 10,2 0,6 11,2 2,1 3,8 1,6 5 3 11 6 W 35 59 0,0
23.03.2019 08:00:00 8,6 0,5 6,2 2,2 4,0 1,6 9 5 14 8 W 35 60 0,0
23.03.2019 07:00:00 5,8 0,4 3,7 2,3 4,1 1,6 12 6 18 10 WSW 35 23 0,0
23.03.2019 06:00:00 5,0 0,5 2,7 2,7 4,2 1,6 15 8 25 13 SSW 30 0 0,0
23.03.2019 05:00:00 5,6 0,7 2,2 3,1 4,3 1,6 20 11 31 17 SSW 30 0 0,0
23.03.2019 04:00:00 6,6 1,0 2,3 3,5 4,4 1,6 23 12 27 14 SSW 35 0 0,0
23.03.2019 03:00:00 5,1 0,7 4,5 3,9 4,5 1,6 21 12 24 13 SSW 35 0 0,0
23.03.2019 02:00:00 5,8 1,0 3,8 4,4 4,5 1,6 19 10 26 14 SW 35 0 0,0
23.03.2019 01:00:00 6,2 1,3 5,3 4,8 4,6 1,6 21 11 26 14 SSW 35 0 0,0
23.03.2019 00:00:00 7,4 1,7 3,1 5,5 4,6 1,6 23 12 26 14 SSW 40 0 0,0
22.03.2019 23:00:00 7,4 1,9 4,3 6,2 4,5 1,6 19 11 24 13 S 50 0 0,0
22.03.2019 22:00:00 8,4 2,1 2,8 7,1 4,4 1,6 16 8 18 10 S 60 0 0,0
22.03.2019 21:00:00 8,2 2,0 4,6 8,1 4,3 1,6 13 7 16 9 S 70 0 0,0
22.03.2019 20:00:00 8,5 2,7 5,0 9,3 4,0 1,6 13 7 19 10 S 70 0 0,0
22.03.2019 19:00:00 9,4 3,1 6,2 10,6 3,8 1,6 12 7 22 12 SSE 70 8 0,0
22.03.2019 18:00:00 12,7 3,7 10,8 11,8 3,5 1,6 20 11 30 16 SE 70 59 0,0
22.03.2019 17:00:00 14,0 3,3 13,3 12,3 3,2 1,6 22 12 29 15 SE 70 60 0,0
22.03.2019 16:00:00 14,9 3,0 14,8 12,2 2,9 1,6 20 11 31 17 SSE 70 59 0,0
22.03.2019 15:00:00 15,7 4,6 15,9 11,5 2,7 1,6 23 13 36 19 SSE 70 60 0,0
22.03.2019 14:00:00 14,6 3,8 15,3 10,2 2,5 1,6 18 10 30 16 SE 70 51 0,0
22.03.2019 13:00:00 14,2 3,7 14,9 8,4 2,5 1,6 24 13 35 19 SSE 70 51 0,0
22.03.2019 12:00:00 13,8 4,5 12,6 6,5 2,4 1,6 27 14 39 21 SE 60 60 0,0
22.03.2019 11:00:00 12,3 3,2 11,4 4,7 2,5 1,6 30 16 44 24 SE 60 60 0,0
22.03.2019 10:00:00 10,8 3,4 10,4 3,0 2,5 1,6 32 17 41 22 SE 60 60 0,0
22.03.2019 09:00:00 8,8 2,0 7,8 2,1 2,6 1,6 32 18 40 22 SE 60 44 0,0
22.03.2019 08:00:00 6,7 0,5 5,4 1,8 2,7 1,6 29 16 36 20 SE 40 34 0,0
22.03.2019 07:00:00 5,1 -0,1 3,2 1,9 2,7 1,6 24 13 30 16 SE 40 0 0,0
22.03.2019 06:00:00 5,4 1,2 3,8 2,1 2,8 1,6 22 12 34 19 SE 40 0 0,0
22.03.2019 05:00:00 5,3 1,6 4,0 2,3 2,9 1,6 29 16 35 19 SE 45 0 0,0
22.03.2019 04:00:00 5,2 1,8 3,6 2,5 2,9 1,6 29 16 35 19 SE 45 0 0,0
22.03.2019 03:00:00 5,3 2,0 3,9 2,8 2,9 1,6 30 16 34 19 SE 45 0 0,0
22.03.2019 02:00:00 5,5 1,8 3,8 3,2 3,0 1,6 21 12 29 16 ESE 60 0 0,0
22.03.2019 01:00:00 5,6 1,4 3,7 3,6 3,0 1,6 27 15 30 16 ESE 55 0 0,0
22.03.2019 00:00:00 6,2 1,5 3,3 4,2 2,9 1,6 18 10 25 14 ESE 55 0 0,0
21.03.2019 23:00:00 6,6 2,0 3,8 4,8 2,9 1,6 16 9 24 13 ESE 55 0 0,0
21.03.2019 22:00:00 7,5 2,2 5,0 5,4 2,7 1,6 16 9 24 13 E 55 0 0,0
21.03.2019 21:00:00 7,7 1,9 5,6 6,2 2,5 1,6 16 9 24 13 NE 55 0 0,0
21.03.2019 20:00:00 8,0 1,3 5,3 7,3 2,3 1,6 12 7 19 11 NE 55 0 0,0
21.03.2019 19:00:00 8,5 1,0 5,9 8,6 2,0 1,6 11 6 14 7 NE 55 8 0,0
21.03.2019 18:00:00 10,0 0,9 8,7 9,6 1,7 1,6 8 5 14 7 NE 55 60 0,0
21.03.2019 17:00:00 11,5 0,5 11,8 10,0 1,4 1,6 8 4 14 8 NNE 55 60 0,0
21.03.2019 16:00:00 11,3 0,3 11,9 9,8 1,1 1,6 9 5 16 9 E 55 58 0,0
21.03.2019 15:00:00 11,0 0,0 12,7 8,9 0,9 1,6 9 5 19 10 NNE 55 60 0,0
21.03.2019 14:00:00 11,5 0,5 12,8 7,2 0,8 1,6 6 3 14 7 E 55 60 0,0
21.03.2019 13:00:00 10,7 0,6 11,6 4,7 0,8 1,6 7 4 15 8 NNW 60 60 0,0
21.03.2019 12:00:00 9,3 0,2 10,3 1,9 0,8 1,6 6 3 13 7 N 60 60 0,0
21.03.2019 11:00:00 8,1 -0,9 9,7 0,3 0,8 1,6 7 4 13 7 N 60 60 0,0
21.03.2019 10:00:00 8,1 -0,9 9,6 0,3 0,8 1,6 4 2 13 7 SSE 55 60 0,0
21.03.2019 09:00:00 6,5 -1,6 5,8 0,3 0,8 1,6 6 3 10 5 SE 60 60 0,0
21.03.2019 08:00:00 4,3 -2,2 0,9 0,3 0,8 1,6 8 4 11 6 SSE 60 60 0,0
21.03.2019 07:00:00 1,9 -2,6 -1,6 0,3 0,8 1,6 10 6 13 7 SSE 60 19 0,0
21.03.2019 06:00:00 1,9 -2,9 -0,9 0,4 0,8 1,6 9 5 11 6 SE 50 0 0,0
21.03.2019 05:00:00 1,9 -3,4 -0,9 0,4 0,9 1,6 9 5 10 5 ESE 60 0 0,0
21.03.2019 04:00:00 2,4 -3,2 -1,0 0,4 0,9 1,6 6 3 10 5 NE 60 0 0,0
21.03.2019 03:00:00 2,5 -3,3 -0,7 0,4 0,9 1,6 7 4 9 5 ENE 60 0 0,0
21.03.2019 02:00:00 2,0 -3,3 -1,2 0,4 0,9 1,6 5 3 6 3 NE 60 0 0,0
21.03.2019 01:00:00 2,2 -3,7 -0,3 0,5 0,8 1,6 3 1 5 3 WSW 60 0 0,0
21.03.2019 00:00:00 2,8 -3,1 0,5 0,5 0,8 1,6 4 2 6 4 W 60 0 0,0
20.03.2019 23:00:00 2,8 -2,8 0,7 0,6 0,8 1,6 4 2 5 3 NNW 55 0 0,0
20.03.2019 22:00:00 2,4 -2,5 -0,5 0,7 0,8 1,6 5 3 7 4 W 60 0 0,0
20.03.2019 21:00:00 2,5 -2,2 0,0 0,8 0,8 1,6 6 4 10 5 W 60 0 0,0
20.03.2019 20:00:00 2,6 -2,1 0,9 1,0 0,7 1,6 7 4 10 5 WNW 60 0 0,0
20.03.2019 19:00:00 3,3 -2,0 1,2 1,5 0,7 1,6 7 4 10 6 W 60 6 0,0
20.03.2019 18:00:00 5,5 -2,3 4,0 1,5 0,7 1,6 8 4 18 10 WNW 60 60 0,0
20.03.2019 17:00:00 7,1 -2,4 6,8 0,6 0,7 1,6 11 6 17 9 NW 60 60 0,0
20.03.2019 16:00:00 6,7 -3,3 7,1 0,2 0,7 1,6 10 5 16 9 NW 60 58 0,0
20.03.2019 15:00:00 6,4 -4,9 7,1 0,2 0,7 1,6 9 5 20 11 WNW 60 60 0,0
20.03.2019 14:00:00 7,2 -1,7 7,8 0,2 0,7 1,6 6 3 17 9 W 50 60 0,0
20.03.2019 13:00:00 5,1 -5,0 6,7 0,2 0,7 1,6 8 4 16 9 WNW 50 60 0,0
20.03.2019 12:00:00 4,6 -3,2 6,3 0,2 0,7 1,6 5 3 16 8 NNW 50 59 0,0
20.03.2019 11:00:00 4,0 -2,9 5,3 0,2 0,7 1,6 8 4 13 7 NW 50 60 0,0
20.03.2019 10:00:00 3,1 -3,0 4,9 0,2 0,7 1,6 8 4 11 6 WNW 50 60 0,0
20.03.2019 09:00:00 1,7 -3,5 2,7 0,2 0,7 1,6 6 4 11 6 W 50 60 0,0
20.03.2019 08:00:00 -0,1 -3,3 -2,4 0,2 0,7 1,6 7 4 16 8 NW 50 60 0,0

tt = temperature
td = dewpoint
tt 5cm = temperature 5cm
tt -5cm = temperature -5cm
tt -20cm = temperature -20cm
tt -100cm = temperature -100cm
ff = wind speed
fx = gusts
dd = wind direction
vv = visibility
sd = sunshine duration
rr = precipitation

Next stations